Time,TemperatureF,DewpointF,PressureIn,WindDirection,WindDirectionDegrees,WindSpeedMPH,WindSpeedGustMPH,Humidity,HourlyPrecipIn,Conditions,Clouds,dailyrainin,SoftwareType,DateUTC
2013-02-19 00:00:00,51.7,48.3,30.19,East,82,0.0,0.0,88,0.00,,---,0.00,VWS V14.00,2013-02-19 05:00:00,
2013-02-19 00:01:00,51.7,48.3,30.19,East,82,0.0,0.0,88,0.00,,---,0.00,VWS V14.00,2013-02-19 05:01:00,
2013-02-19 00:05:00,50.4,47.3,30.18,East,82,0.0,0.0,89,0.00,,---,0.00,VWS V14.00,2013-02-19 05:05:00,
2013-02-19 00:06:00,51.7,48.3,30.19,East,82,0.0,0.0,88,0.00,,---,0.00,VWS V14.00,2013-02-19 05:06:00,
2013-02-19 00:10:00,50.2,47.1,30.18,East,82,0.0,0.0,89,0.00,,---,0.00,VWS V14.00,2013-02-19 05:10:00,
2013-02-19 00:11:00,51.8,48.4,30.19,East,82,0.0,0.0,88,0.00,,---,0.00,VWS V14.00,2013-02-19 05:11:00,
2013-02-19 00:15:00,50.1,47.3,30.18,East,82,0.0,0.0,90,0.00,,---,0.00,VWS V14.00,2013-02-19 05:15:00,
2013-02-19 00:16:00,51.8,48.4,30.19,East,82,0.0,0.0,88,0.00,,---,0.00,VWS V14.00,2013-02-19 05:16:00,
2013-02-19 00:20:00,50.0,47.2,30.18,East,82,0.0,0.0,90,0.00,,---,0.00,VWS V14.00,2013-02-19 05:20:00,
2013-02-19 00:21:00,51.7,48.0,30.19,East,82,0.0,0.0,87,0.00,,---,0.00,VWS V14.00,2013-02-19 05:21:00,
2013-02-19 00:25:00,49.9,47.1,30.17,East,82,0.0,0.0,90,0.00,,---,0.00,VWS V14.00,2013-02-19 05:25:00,
2013-02-19 00:26:00,51.6,48.2,30.19,East,82,0.0,0.0,88,0.00,,---,0.00,VWS V14.00,2013-02-19 05:26:00,
2013-02-19 00:30:00,49.7,47.2,30.17,East,82,0.0,0.0,91,0.00,,---,0.00,VWS V14.00,2013-02-19 05:30:00,
2013-02-19 00:31:00,51.6,48.2,30.18,East,82,0.0,0.0,88,0.00,,---,0.00,VWS V14.00,2013-02-19 05:31:00,
2013-02-19 00:35:00,49.7,47.5,30.17,East,82,0.0,0.0,92,0.00,,---,0.00,VWS V14.00,2013-02-19 05:35:00,
2013-02-19 00:36:00,51.5,48.1,30.18,East,82,0.0,0.0,88,0.00,,---,0.00,VWS V14.00,2013-02-19 05:36:00,
2013-02-19 00:40:00,49.8,47.6,30.17,East,82,0.0,0.0,92,0.00,,---,0.00,VWS V14.00,2013-02-19 05:40:00,
2013-02-19 00:41:00,51.3,47.9,30.18,East,82,0.0,0.0,88,0.00,,---,0.00,VWS V14.00,2013-02-19 05:41:00,
2013-02-19 00:45:00,50.0,48.1,30.17,East,82,0.0,0.0,93,0.00,,---,0.00,VWS V14.00,2013-02-19 05:45:00,
2013-02-19 00:46:00,51.2,47.8,30.18,East,82,0.0,0.0,88,0.00,,---,0.00,VWS V14.00,2013-02-19 05:46:00,
2013-02-19 00:50:00,50.2,48.3,30.16,East,82,0.0,0.0,93,0.00,,---,0.00,VWS V14.00,2013-02-19 05:50:00,
2013-02-19 00:51:00,51.0,47.9,30.18,East,82,0.0,0.0,89,0.00,,---,0.00,VWS V14.00,2013-02-19 05:51:00,
2013-02-19 00:55:00,50.3,48.4,30.16,East,82,0.0,0.0,93,0.00,,---,0.00,VWS V14.00,2013-02-19 05:55:00,
2013-02-19 00:56:00,50.8,47.4,30.18,East,82,0.0,0.0,88,0.00,,---,0.00,VWS V14.00,2013-02-19 05:56:00,
2013-02-19 01:00:00,50.5,48.6,30.16,East,82,0.0,0.0,93,0.00,,---,0.00,VWS V14.00,2013-02-19 06:00:00,
2013-02-19 01:01:00,50.6,47.5,30.18,East,82,0.0,0.0,89,0.00,,---,0.00,VWS V14.00,2013-02-19 06:01:00,
2013-02-19 01:05:00,50.5,48.3,30.16,East,82,0.0,0.0,92,0.00,,---,0.00,VWS V14.00,2013-02-19 06:05:00,
2013-02-19 01:06:00,50.4,47.3,30.18,East,82,0.0,0.0,89,0.00,,---,0.00,VWS V14.00,2013-02-19 06:06:00,
2013-02-19 01:10:00,50.6,48.7,30.16,East,82,0.0,0.0,93,0.00,,---,0.00,VWS V14.00,2013-02-19 06:10:00,
2013-02-19 01:11:00,50.2,47.1,30.18,East,82,0.0,0.0,89,0.00,,---,0.00,VWS V14.00,2013-02-19 06:11:00,
2013-02-19 01:15:00,50.8,48.8,30.16,East,82,0.0,2.0,93,0.00,,---,0.00,VWS V14.00,2013-02-19 06:15:00,
2013-02-19 01:16:00,50.1,47.3,30.17,East,82,0.0,0.0,90,0.00,,---,0.00,VWS V14.00,2013-02-19 06:16:00,
2013-02-19 01:20:00,51.0,49.0,30.15,East,82,0.0,1.0,93,0.00,,---,0.00,VWS V14.00,2013-02-19 06:20:00,
2013-02-19 01:21:00,50.0,47.2,30.17,East,82,0.0,0.0,90,0.00,,---,0.00,VWS V14.00,2013-02-19 06:21:00,
2013-02-19 01:25:00,51.2,49.2,30.15,East,82,0.0,0.0,93,0.00,,---,0.00,VWS V14.00,2013-02-19 06:25:00,
2013-02-19 01:26:00,49.9,47.1,30.17,East,82,0.0,0.0,90,0.00,,---,0.00,VWS V14.00,2013-02-19 06:26:00,
2013-02-19 01:30:00,51.3,49.3,30.15,East,82,0.0,0.0,93,0.00,,---,0.00,VWS V14.00,2013-02-19 06:30:00,
2013-02-19 01:31:00,49.7,47.2,30.17,East,82,0.0,0.0,91,0.00,,---,0.00,VWS V14.00,2013-02-19 06:31:00,
2013-02-19 01:35:00,51.5,49.5,30.15,East,82,0.0,1.0,93,0.00,,---,0.00,VWS V14.00,2013-02-19 06:35:00,
2013-02-19 01:36:00,49.7,47.5,30.17,East,82,0.0,0.0,92,0.00,,---,0.00,VWS V14.00,2013-02-19 06:36:00,
2013-02-19 01:40:00,51.7,49.8,30.15,East,82,0.0,0.0,93,0.00,,---,0.00,VWS V14.00,2013-02-19 06:40:00,
2013-02-19 01:41:00,49.9,47.7,30.17,East,82,0.0,0.0,92,0.00,,---,0.00,VWS V14.00,2013-02-19 06:41:00,
2013-02-19 01:45:00,51.9,49.9,30.14,ENE,73,0.0,6.0,93,0.00,,---,0.00,VWS V14.00,2013-02-19 06:45:00,
2013-02-19 01:46:00,50.0,48.1,30.17,East,82,0.0,0.0,93,0.00,,---,0.00,VWS V14.00,2013-02-19 06:46:00,
2013-02-19 01:50:00,52.1,49.8,30.14,ENE,73,0.0,0.0,92,0.00,,---,0.00,VWS V14.00,2013-02-19 06:50:00,
2013-02-19 01:51:00,50.2,48.3,30.16,East,82,0.0,0.0,93,0.00,,---,0.00,VWS V14.00,2013-02-19 06:51:00,
2013-02-19 01:55:00,52.2,50.0,30.15,ENE,73,0.0,0.0,92,0.00,,---,0.00,VWS V14.00,2013-02-19 06:55:00,
2013-02-19 01:56:00,50.3,48.4,30.16,East,82,0.0,0.0,93,0.00,,---,0.00,VWS V14.00,2013-02-19 06:56:00,
2013-02-19 02:00:00,52.3,50.0,30.14,ENE,73,0.0,1.0,92,0.00,,---,0.00,VWS V14.00,2013-02-19 07:00:00,
2013-02-19 02:01:00,50.5,48.6,30.16,East,82,0.0,0.0,93,0.00,,---,0.00,VWS V14.00,2013-02-19 07:01:00,
2013-02-19 02:05:00,52.3,50.0,30.14,ENE,73,0.0,1.0,92,0.00,,---,0.00,VWS V14.00,2013-02-19 07:05:00,
2013-02-19 02:06:00,50.6,48.4,30.16,East,82,0.0,0.0,92,0.00,,---,0.00,VWS V14.00,2013-02-19 07:06:00,
2013-02-19 02:10:00,52.3,50.0,30.14,ENE,73,0.0,0.0,92,0.00,,---,0.00,VWS V14.00,2013-02-19 07:10:00,
2013-02-19 02:11:00,50.6,48.7,30.16,East,82,0.0,0.0,93,0.00,,---,0.00,VWS V14.00,2013-02-19 07:11:00,
2013-02-19 02:15:00,52.3,50.0,30.14,ENE,73,0.0,0.0,92,0.00,,---,0.00,VWS V14.00,2013-02-19 07:15:00,
2013-02-19 02:16:00,50.8,48.8,30.16,East,82,0.0,0.0,93,0.00,,---,0.00,VWS V14.00,2013-02-19 07:16:00,
2013-02-19 02:20:00,52.1,49.6,30.14,ENE,73,0.0,0.0,91,0.00,,---,0.00,VWS V14.00,2013-02-19 07:20:00,
2013-02-19 02:21:00,51.0,49.0,30.15,East,82,0.0,0.0,93,0.00,,---,0.00,VWS V14.00,2013-02-19 07:21:00,
2013-02-19 02:25:00,51.9,49.4,30.14,ENE,73,0.0,0.0,91,0.00,,---,0.00,VWS V14.00,2013-02-19 07:25:00,
2013-02-19 02:26:00,51.2,49.2,30.15,East,82,0.0,0.0,93,0.00,,---,0.00,VWS V14.00,2013-02-19 07:26:00,
2013-02-19 02:30:00,51.7,49.2,30.14,ENE,73,0.0,0.0,91,0.00,,---,0.00,VWS V14.00,2013-02-19 07:30:00,
2013-02-19 02:31:00,51.3,49.3,30.15,East,82,0.0,0.0,93,0.00,,---,0.00,VWS V14.00,2013-02-19 07:31:00,
2013-02-19 02:35:00,51.5,49.0,30.14,ENE,73,0.0,0.0,91,0.00,,---,0.00,VWS V14.00,2013-02-19 07:35:00,
2013-02-19 02:36:00,51.5,49.5,30.15,East,82,0.0,0.0,93,0.00,,---,0.00,VWS V14.00,2013-02-19 07:36:00,
2013-02-19 02:40:00,51.2,48.7,30.14,ENE,73,0.0,0.0,91,0.00,,---,0.00,VWS V14.00,2013-02-19 07:40:00,
2013-02-19 02:41:00,51.6,49.7,30.15,East,82,0.0,0.0,93,0.00,,---,0.00,VWS V14.00,2013-02-19 07:41:00,
2013-02-19 02:45:00,51.1,48.9,30.14,ENE,73,0.0,0.0,92,0.00,,---,0.00,VWS V14.00,2013-02-19 07:45:00,
2013-02-19 02:46:00,51.9,49.9,30.14,ENE,73,0.0,0.0,93,0.00,,---,0.00,VWS V14.00,2013-02-19 07:46:00,
2013-02-19 02:50:00,51.0,48.8,30.14,ENE,73,0.0,0.0,92,0.00,,---,0.00,VWS V14.00,2013-02-19 07:50:00,
2013-02-19 02:51:00,52.1,49.8,30.14,ENE,73,0.0,0.0,92,0.00,,---,0.00,VWS V14.00,2013-02-19 07:51:00,
2013-02-19 02:55:00,50.9,49.0,30.14,ENE,73,0.0,0.0,93,0.00,,---,0.00,VWS V14.00,2013-02-19 07:55:00,
2013-02-19 02:56:00,52.2,50.0,30.14,ENE,73,0.0,0.0,92,0.00,,---,0.00,VWS V14.00,2013-02-19 07:56:00,
2013-02-19 03:00:00,50.8,48.8,30.14,ENE,73,0.0,0.0,93,0.00,,---,0.00,VWS V14.00,2013-02-19 08:00:00,
2013-02-19 03:01:00,52.2,50.0,30.14,ENE,72,1.0,1.0,92,0.00,,---,0.00,VWS V14.00,2013-02-19 08:01:00,
2013-02-19 03:05:00,50.8,48.8,30.14,ENE,73,0.0,0.0,93,0.00,,---,0.00,VWS V14.00,2013-02-19 08:05:00,
2013-02-19 03:06:00,52.3,50.0,30.14,ENE,72,0.0,0.0,92,0.00,,---,0.00,VWS V14.00,2013-02-19 08:06:00,
2013-02-19 03:10:00,50.7,48.5,30.14,ENE,73,0.0,0.0,92,0.00,,---,0.00,VWS V14.00,2013-02-19 08:10:00,
2013-02-19 03:11:00,52.3,50.0,30.14,ENE,73,0.0,0.0,92,0.00,,---,0.00,VWS V14.00,2013-02-19 08:11:00,
2013-02-19 03:15:00,50.5,48.3,30.14,ENE,73,0.0,0.0,92,0.00,,---,0.00,VWS V14.00,2013-02-19 08:15:00,
2013-02-19 03:16:00,52.2,50.0,30.14,ENE,72,0.0,0.0,92,0.00,,---,0.00,VWS V14.00,2013-02-19 08:16:00,
2013-02-19 03:20:00,50.4,48.5,30.14,ENE,73,0.0,0.0,93,0.00,,---,0.00,VWS V14.00,2013-02-19 08:20:00,
2013-02-19 03:21:00,52.1,49.6,30.15,ENE,73,0.0,0.0,91,0.00,,---,0.00,VWS V14.00,2013-02-19 08:21:00,
2013-02-19 03:25:00,50.3,48.4,30.14,ENE,73,0.0,0.0,93,0.00,,---,0.00,VWS V14.00,2013-02-19 08:25:00,
2013-02-19 03:26:00,51.9,49.4,30.14,ENE,73,0.0,0.0,91,0.00,,---,0.00,VWS V14.00,2013-02-19 08:26:00,
2013-02-19 03:30:00,50.1,48.2,30.14,ENE,73,0.0,0.0,93,0.00,,---,0.00,VWS V14.00,2013-02-19 08:30:00,
2013-02-19 03:31:00,51.7,49.2,30.14,ENE,73,0.0,0.0,91,0.00,,---,0.00,VWS V14.00,2013-02-19 08:31:00,
2013-02-19 03:35:00,50.1,48.2,30.14,ENE,73,0.0,0.0,93,0.00,,---,0.00,VWS V14.00,2013-02-19 08:35:00,
2013-02-19 03:36:00,51.4,48.9,30.14,ENE,73,0.0,0.0,91,0.00,,---,0.00,VWS V14.00,2013-02-19 08:36:00,
2013-02-19 03:40:00,50.0,48.1,30.14,ENE,72,0.0,0.0,93,0.00,,---,0.00,VWS V14.00,2013-02-19 08:40:00,
2013-02-19 03:41:00,51.2,48.7,30.14,ENE,73,0.0,0.0,91,0.00,,---,0.00,VWS V14.00,2013-02-19 08:41:00,
2013-02-19 03:45:00,49.9,48.0,30.14,ENE,72,0.0,0.0,93,0.00,,---,0.00,VWS V14.00,2013-02-19 08:45:00,
2013-02-19 03:46:00,51.1,48.9,30.14,ENE,73,0.0,0.0,92,0.00,,---,0.00,VWS V14.00,2013-02-19 08:46:00,
2013-02-19 03:50:00,49.7,47.8,30.15,ENE,73,0.0,0.0,93,0.00,,---,0.00,VWS V14.00,2013-02-19 08:50:00,
2013-02-19 03:51:00,50.9,48.7,30.14,ENE,73,0.0,0.0,92,0.00,,---,0.00,VWS V14.00,2013-02-19 08:51:00,
2013-02-19 03:55:00,49.6,48.0,30.15,ENE,73,0.0,0.0,94,0.00,,---,0.00,VWS V14.00,2013-02-19 08:55:00,
2013-02-19 03:56:00,50.9,49.0,30.14,ENE,73,0.0,0.0,93,0.00,,---,0.00,VWS V14.00,2013-02-19 08:56:00,
2013-02-19 04:00:00,49.5,47.6,30.16,ENE,73,0.0,0.0,93,0.00,,---,0.00,VWS V14.00,2013-02-19 09:00:00,
2013-02-19 04:01:00,50.9,49.0,30.14,ENE,73,0.0,0.0,93,0.00,,---,0.00,VWS V14.00,2013-02-19 09:01:00,
2013-02-19 04:05:00,49.4,47.8,30.15,ENE,73,0.0,0.0,94,0.00,,---,0.00,VWS V14.00,2013-02-19 09:05:00,
2013-02-19 04:06:00,50.8,48.8,30.14,ENE,73,0.0,0.0,93,0.00,,---,0.00,VWS V14.00,2013-02-19 09:06:00,
2013-02-19 04:10:00,49.3,47.7,30.15,ENE,73,0.0,0.0,94,0.00,,---,0.00,VWS V14.00,2013-02-19 09:10:00,
2013-02-19 04:11:00,50.7,48.5,30.14,ENE,73,0.0,0.0,92,0.00,,---,0.00,VWS V14.00,2013-02-19 09:11:00,
2013-02-19 04:15:00,49.3,47.7,30.15,ENE,73,0.0,0.0,94,0.00,,---,0.00,VWS V14.00,2013-02-19 09:15:00,
2013-02-19 04:16:00,50.5,48.3,30.14,ENE,73,0.0,0.0,92,0.00,,---,0.00,VWS V14.00,2013-02-19 09:16:00,
2013-02-19 04:20:00,49.2,47.5,30.15,ENE,73,0.0,0.0,94,0.00,,---,0.00,VWS V14.00,2013-02-19 09:20:00,
2013-02-19 04:21:00,50.4,48.5,30.14,ENE,73,0.0,0.0,93,0.00,,---,0.00,VWS V14.00,2013-02-19 09:21:00,
2013-02-19 04:25:00,49.2,47.8,30.15,ENE,73,0.0,0.0,95,0.00,,---,0.00,VWS V14.00,2013-02-19 09:25:00,
2013-02-19 04:26:00,50.3,48.4,30.14,ENE,73,0.0,0.0,93,0.00,,---,0.00,VWS V14.00,2013-02-19 09:26:00,
2013-02-19 04:30:00,49.1,47.5,30.15,ENE,73,0.0,0.0,94,0.00,,---,0.00,VWS V14.00,2013-02-19 09:30:00,
2013-02-19 04:31:00,50.1,48.2,30.14,ENE,73,0.0,0.0,93,0.00,,---,0.00,VWS V14.00,2013-02-19 09:31:00,
2013-02-19 04:35:00,49.1,47.5,30.15,ENE,73,0.0,0.0,94,0.00,,---,0.00,VWS V14.00,2013-02-19 09:35:00,
2013-02-19 04:36:00,50.0,48.1,30.14,ENE,73,0.0,0.0,93,0.00,,---,0.00,VWS V14.00,2013-02-19 09:36:00,
2013-02-19 04:40:00,49.0,47.3,30.16,ENE,73,0.0,0.0,94,0.00,,---,0.00,VWS V14.00,2013-02-19 09:40:00,
2013-02-19 04:41:00,50.0,48.1,30.14,ENE,73,0.0,0.0,93,0.00,,---,0.00,VWS V14.00,2013-02-19 09:41:00,
2013-02-19 04:45:00,48.9,47.2,30.16,ENE,72,0.0,0.0,94,0.00,,---,0.00,VWS V14.00,2013-02-19 09:45:00,
2013-02-19 04:46:00,49.9,48.0,30.14,ENE,73,0.0,0.0,93,0.00,,---,0.00,VWS V14.00,2013-02-19 09:46:00,
2013-02-19 04:50:00,48.8,47.4,30.15,ENE,73,0.0,0.0,95,0.00,,---,0.00,VWS V14.00,2013-02-19 09:50:00,
2013-02-19 04:51:00,49.7,47.8,30.15,ENE,73,0.0,0.0,93,0.00,,---,0.00,VWS V14.00,2013-02-19 09:51:00,
2013-02-19 04:55:00,48.8,47.4,30.15,ENE,73,0.0,0.0,95,0.00,,---,0.00,VWS V14.00,2013-02-19 09:55:00,
2013-02-19 04:56:00,49.6,48.0,30.15,ENE,73,0.0,0.0,94,0.00,,---,0.00,VWS V14.00,2013-02-19 09:56:00,
2013-02-19 05:00:00,48.7,47.3,30.15,ENE,73,0.0,0.0,95,0.00,,---,0.00,VWS V14.00,2013-02-19 10:00:00,
2013-02-19 05:01:00,49.5,47.6,30.16,ENE,73,0.0,0.0,93,0.00,,---,0.00,VWS V14.00,2013-02-19 10:01:00,
2013-02-19 05:05:00,48.7,47.3,30.15,ENE,72,0.0,0.0,95,0.00,,---,0.00,VWS V14.00,2013-02-19 10:05:00,
2013-02-19 05:06:00,49.4,47.8,30.15,ENE,73,0.0,0.0,94,0.00,,---,0.00,VWS V14.00,2013-02-19 10:06:00,
2013-02-19 05:10:00,48.7,47.3,30.16,ENE,73,0.0,0.0,95,0.00,,---,0.00,VWS V14.00,2013-02-19 10:10:00,
2013-02-19 05:11:00,49.3,47.7,30.15,ENE,73,0.0,0.0,94,0.00,,---,0.00,VWS V14.00,2013-02-19 10:11:00,
2013-02-19 05:15:00,48.7,47.3,30.16,ENE,73,0.0,0.0,95,0.00,,---,0.00,VWS V14.00,2013-02-19 10:15:00,
2013-02-19 05:16:00,49.3,47.7,30.15,ENE,73,0.0,0.0,94,0.00,,---,0.00,VWS V14.00,2013-02-19 10:16:00,
2013-02-19 05:20:00,48.6,47.2,30.16,ENE,73,0.0,0.0,95,0.00,,---,0.00,VWS V14.00,2013-02-19 10:20:00,
2013-02-19 05:21:00,49.2,47.5,30.15,ENE,73,0.0,0.0,94,0.00,,---,0.00,VWS V14.00,2013-02-19 10:21:00,
2013-02-19 05:25:00,48.6,47.2,30.16,ENE,73,0.0,0.0,95,0.00,,---,0.00,VWS V14.00,2013-02-19 10:25:00,
2013-02-19 05:26:00,49.2,47.8,30.15,ENE,73,0.0,0.0,95,0.00,,---,0.00,VWS V14.00,2013-02-19 10:26:00,
2013-02-19 05:30:00,48.5,47.1,30.16,ENE,73,0.0,0.0,95,0.00,,---,0.00,VWS V14.00,2013-02-19 10:30:00,
2013-02-19 05:31:00,49.1,47.5,30.15,ENE,72,0.0,0.0,94,0.00,,---,0.00,VWS V14.00,2013-02-19 10:31:00,
2013-02-19 05:35:00,48.4,47.0,30.16,ENE,73,0.0,0.0,95,0.00,,---,0.00,VWS V14.00,2013-02-19 10:35:00,
2013-02-19 05:36:00,49.1,47.5,30.15,ENE,73,0.0,0.0,94,0.00,,---,0.00,VWS V14.00,2013-02-19 10:36:00,
2013-02-19 05:40:00,48.3,46.9,30.16,ENE,73,0.0,0.0,95,0.00,,---,0.00,VWS V14.00,2013-02-19 10:40:00,
2013-02-19 05:41:00,49.0,47.3,30.16,ENE,73,0.0,0.0,94,0.00,,---,0.00,VWS V14.00,2013-02-19 10:41:00,
2013-02-19 05:45:00,48.2,46.8,30.16,ENE,72,0.0,0.0,95,0.00,,---,0.00,VWS V14.00,2013-02-19 10:45:00,
2013-02-19 05:46:00,48.9,47.2,30.15,ENE,73,0.0,0.0,94,0.00,,---,0.00,VWS V14.00,2013-02-19 10:46:00,
2013-02-19 05:50:00,48.2,46.8,30.16,ENE,73,0.0,0.0,95,0.00,,---,0.00,VWS V14.00,2013-02-19 10:50:00,
2013-02-19 05:51:00,48.8,47.4,30.15,ENE,73,0.0,0.0,95,0.00,,---,0.00,VWS V14.00,2013-02-19 10:51:00,
2013-02-19 05:55:00,48.1,46.7,30.16,ENE,73,0.0,0.0,95,0.00,,---,0.00,VWS V14.00,2013-02-19 10:55:00,
2013-02-19 05:56:00,48.8,47.4,30.15,ENE,73,0.0,0.0,95,0.00,,---,0.00,VWS V14.00,2013-02-19 10:56:00,
2013-02-19 06:00:00,48.1,46.7,30.16,ENE,73,0.0,0.0,95,0.00,,---,0.00,VWS V14.00,2013-02-19 11:00:00,
2013-02-19 06:01:00,48.7,47.3,30.15,ENE,73,0.0,0.0,95,0.00,,---,0.00,VWS V14.00,2013-02-19 11:01:00,
2013-02-19 06:05:00,48.2,46.8,30.16,ENE,73,0.0,0.0,95,0.00,,---,0.00,VWS V14.00,2013-02-19 11:05:00,
2013-02-19 06:06:00,48.7,47.3,30.15,ENE,72,0.0,0.0,95,0.00,,---,0.00,VWS V14.00,2013-02-19 11:06:00,
2013-02-19 06:10:00,48.2,47.1,30.16,ENE,73,0.0,0.0,96,0.00,,---,0.00,VWS V14.00,2013-02-19 11:10:00,
2013-02-19 06:11:00,48.7,47.3,30.16,ENE,73,0.0,0.0,95,0.00,,---,0.00,VWS V14.00,2013-02-19 11:11:00,
2013-02-19 06:15:00,48.3,47.2,30.16,ENE,73,0.0,0.0,96,0.00,,---,0.00,VWS V14.00,2013-02-19 11:15:00,
2013-02-19 06:16:00,48.7,47.3,30.16,ENE,73,0.0,0.0,95,0.00,,---,0.00,VWS V14.00,2013-02-19 11:16:00,
2013-02-19 06:20:00,48.5,47.4,30.16,ENE,73,0.0,0.0,96,0.00,,---,0.00,VWS V14.00,2013-02-19 11:20:00,
2013-02-19 06:21:00,48.6,47.2,30.16,ENE,73,0.0,0.0,95,0.00,,---,0.00,VWS V14.00,2013-02-19 11:21:00,
2013-02-19 06:25:00,48.7,47.6,30.16,ENE,73,0.0,0.0,96,0.00,,---,0.00,VWS V14.00,2013-02-19 11:25:00,
2013-02-19 06:26:00,48.6,47.2,30.16,ENE,72,0.0,0.0,95,0.00,,---,0.00,VWS V14.00,2013-02-19 11:26:00,
2013-02-19 06:30:00,48.9,48.1,30.15,ENE,73,0.0,0.0,97,0.00,,---,0.00,VWS V14.00,2013-02-19 11:30:00,
2013-02-19 06:31:00,48.5,47.1,30.16,ENE,72,0.0,0.0,95,0.00,,---,0.00,VWS V14.00,2013-02-19 11:31:00,
2013-02-19 06:35:00,49.3,48.5,30.16,ENE,73,0.0,0.0,97,0.00,,---,0.00,VWS V14.00,2013-02-19 11:35:00,
2013-02-19 06:36:00,48.3,46.9,30.16,ENE,73,0.0,0.0,95,0.00,,---,0.00,VWS V14.00,2013-02-19 11:36:00,
2013-02-19 06:40:00,50.0,49.2,30.16,ENE,73,1.0,1.0,97,0.00,,---,0.00,VWS V14.00,2013-02-19 11:40:00,
2013-02-19 06:41:00,48.3,46.9,30.16,ENE,73,0.0,0.0,95,0.00,,---,0.00,VWS V14.00,2013-02-19 11:41:00,
2013-02-19 06:45:00,50.7,49.9,30.16,ENE,73,0.0,1.0,97,0.00,,---,0.00,VWS V14.00,2013-02-19 11:45:00,
2013-02-19 06:46:00,48.2,46.8,30.16,ENE,73,0.0,0.0,95,0.00,,---,0.00,VWS V14.00,2013-02-19 11:46:00,
2013-02-19 06:50:00,51.4,50.6,30.16,ENE,73,1.0,2.0,97,0.00,,---,0.00,VWS V14.00,2013-02-19 11:50:00,
2013-02-19 06:51:00,48.2,46.8,30.16,ENE,73,0.0,0.0,95,0.00,,---,0.00,VWS V14.00,2013-02-19 11:51:00,
2013-02-19 06:55:00,52.0,51.2,30.16,ENE,73,1.0,3.0,97,0.00,,---,0.00,VWS V14.00,2013-02-19 11:55:00,
2013-02-19 06:56:00,48.1,46.7,30.16,ENE,73,0.0,0.0,95,0.00,,---,0.00,VWS V14.00,2013-02-19 11:56:00,
2013-02-19 07:00:00,52.7,51.9,30.16,ENE,73,2.0,2.0,97,0.00,,---,0.00,VWS V14.00,2013-02-19 12:00:00,
2013-02-19 07:01:00,48.1,46.7,30.16,ENE,73,0.0,0.0,95,0.00,,---,0.00,VWS V14.00,2013-02-19 12:01:00,
2013-02-19 07:05:00,53.2,52.4,30.16,ENE,73,0.0,2.0,97,0.00,,---,0.00,VWS V14.00,2013-02-19 12:05:00,
2013-02-19 07:06:00,48.2,46.8,30.16,ENE,73,0.0,0.0,95,0.00,,---,0.00,VWS V14.00,2013-02-19 12:06:00,
2013-02-19 07:10:00,53.9,53.1,30.16,ENE,73,1.0,2.0,97,0.00,,---,0.00,VWS V14.00,2013-02-19 12:10:00,
2013-02-19 07:11:00,48.2,47.1,30.16,ENE,73,0.0,0.0,96,0.00,,---,0.00,VWS V14.00,2013-02-19 12:11:00,
2013-02-19 07:15:00,54.8,53.7,30.16,ENE,73,2.0,4.0,96,0.00,,---,0.00,VWS V14.00,2013-02-19 12:15:00,
2013-02-19 07:16:00,48.3,47.2,30.16,ENE,72,0.0,0.0,96,0.00,,---,0.00,VWS V14.00,2013-02-19 12:16:00,
2013-02-19 07:20:00,55.7,54.0,30.16,ENE,73,0.0,2.0,94,0.00,,---,0.00,VWS V14.00,2013-02-19 12:20:00,
2013-02-19 07:21:00,48.5,47.4,30.16,ENE,72,0.0,0.0,96,0.00,,---,0.00,VWS V14.00,2013-02-19 12:21:00,
2013-02-19 07:25:00,56.8,54.8,30.16,ENE,73,0.0,1.0,93,0.00,,---,0.00,VWS V14.00,2013-02-19 12:25:00,
2013-02-19 07:26:00,48.7,47.6,30.16,ENE,73,0.0,0.0,96,0.00,,---,0.00,VWS V14.00,2013-02-19 12:26:00,
2013-02-19 07:30:00,58.1,55.5,30.16,ENE,73,0.0,0.0,91,0.00,,---,0.00,VWS V14.00,2013-02-19 12:30:00,
2013-02-19 07:31:00,48.9,48.1,30.15,ENE,73,0.0,0.0,97,0.00,,---,0.00,VWS V14.00,2013-02-19 12:31:00,
2013-02-19 07:35:00,59.5,56.0,30.16,ENE,77,2.0,5.0,88,0.00,,---,0.00,VWS V14.00,2013-02-19 12:35:00,
2013-02-19 07:36:00,49.4,48.6,30.16,ENE,73,0.0,0.0,97,0.00,,---,0.00,VWS V14.00,2013-02-19 12:36:00,
2013-02-19 07:40:00,60.9,56.4,30.16,ENE,77,0.0,5.0,85,0.00,,---,0.00,VWS V14.00,2013-02-19 12:40:00,
2013-02-19 07:41:00,50.0,49.2,30.16,ENE,73,1.0,1.0,97,0.00,,---,0.00,VWS V14.00,2013-02-19 12:41:00,
2013-02-19 07:45:00,62.3,57.1,30.16,ENE,78,4.0,4.0,83,0.00,,---,0.00,VWS V14.00,2013-02-19 12:45:00,
2013-02-19 07:46:00,50.7,49.9,30.16,ENE,72,0.0,0.0,97,0.00,,---,0.00,VWS V14.00,2013-02-19 12:46:00,
2013-02-19 07:50:00,63.3,57.4,30.16,East,82,4.0,5.0,81,0.00,,---,0.00,VWS V14.00,2013-02-19 12:50:00,
2013-02-19 07:51:00,51.4,50.6,30.16,ENE,73,1.0,1.0,97,0.00,,---,0.00,VWS V14.00,2013-02-19 12:51:00,
2013-02-19 07:55:00,64.3,57.7,30.17,SE,132,2.0,7.0,79,0.00,,---,0.00,VWS V14.00,2013-02-19 12:55:00,
2013-02-19 07:56:00,52.1,51.5,30.16,ENE,72,0.0,1.0,98,0.00,,---,0.00,VWS V14.00,2013-02-19 12:56:00,
2013-02-19 08:00:00,65.5,57.7,30.17,SE,136,4.0,9.0,76,0.00,,---,0.00,VWS V14.00,2013-02-19 13:00:00,
2013-02-19 08:01:00,52.7,51.9,30.16,ENE,73,1.0,2.0,97,0.00,,---,0.00,VWS V14.00,2013-02-19 13:01:00,
2013-02-19 08:05:00,66.4,57.9,30.17,SE,130,5.0,7.0,74,0.00,,---,0.00,VWS V14.00,2013-02-19 13:05:00,
2013-02-19 08:06:00,53.3,52.5,30.16,ENE,73,0.0,0.0,97,0.00,,---,0.00,VWS V14.00,2013-02-19 13:06:00,
2013-02-19 08:10:00,67.1,58.2,30.16,SE,127,8.0,8.0,73,0.00,,---,0.00,VWS V14.00,2013-02-19 13:10:00,
2013-02-19 08:11:00,53.9,53.1,30.16,ENE,73,1.0,2.0,97,0.00,,---,0.00,VWS V14.00,2013-02-19 13:11:00,
2013-02-19 08:15:00,67.7,58.0,30.16,ESE,123,2.0,9.0,71,0.00,,---,0.00,VWS V14.00,2013-02-19 13:15:00,
2013-02-19 08:16:00,54.8,53.7,30.16,ENE,73,0.0,2.0,96,0.00,,---,0.00,VWS V14.00,2013-02-19 13:16:00,
2013-02-19 08:20:00,68.5,58.3,30.16,SE,142,5.0,6.0,70,0.00,,---,0.00,VWS V14.00,2013-02-19 13:20:00,
2013-02-19 08:21:00,55.8,54.1,30.16,ENE,73,0.0,0.0,94,0.00,,---,0.00,VWS V14.00,2013-02-19 13:21:00,
2013-02-19 08:25:00,68.9,58.3,30.16,SE,144,2.0,7.0,69,0.00,,---,0.00,VWS V14.00,2013-02-19 13:25:00,
2013-02-19 08:26:00,56.9,54.6,30.16,ENE,73,0.0,0.0,92,0.00,,---,0.00,VWS V14.00,2013-02-19 13:26:00,
2013-02-19 08:30:00,69.5,58.1,30.16,ESE,121,5.0,9.0,67,0.00,,---,0.00,VWS V14.00,2013-02-19 13:30:00,
2013-02-19 08:31:00,58.2,55.3,30.16,ENE,73,0.0,0.0,90,0.00,,---,0.00,VWS V14.00,2013-02-19 13:31:00,
2013-02-19 08:35:00,70.3,58.8,30.16,ESE,123,7.0,10.0,67,0.00,,---,0.00,VWS V14.00,2013-02-19 13:35:00,
2013-02-19 08:36:00,59.5,56.0,30.16,ENE,77,1.0,2.0,88,0.00,,---,0.00,VWS V14.00,2013-02-19 13:36:00,
2013-02-19 08:40:00,70.8,58.9,30.16,SE,146,6.0,10.0,66,0.00,,---,0.00,VWS V14.00,2013-02-19 13:40:00,
2013-02-19 08:41:00,60.9,56.4,30.16,ENE,77,0.0,0.0,85,0.00,,---,0.00,VWS V14.00,2013-02-19 13:41:00,
2013-02-19 08:45:00,71.3,58.9,30.16,SE,143,3.0,10.0,65,0.00,,---,0.00,VWS V14.00,2013-02-19 13:45:00,
2013-02-19 08:46:00,62.3,57.1,30.16,ENE,78,2.0,4.0,83,0.00,,---,0.00,VWS V14.00,2013-02-19 13:46:00,
2013-02-19 08:50:00,72.0,59.6,30.16,SE,130,5.0,10.0,65,0.00,,---,0.00,VWS V14.00,2013-02-19 13:50:00,
2013-02-19 08:51:00,63.4,57.5,30.17,East,82,1.0,4.0,81,0.00,,---,0.00,VWS V14.00,2013-02-19 13:51:00,
2013-02-19 08:55:00,72.5,59.6,30.17,SE,136,6.0,10.0,64,0.00,,---,0.00,VWS V14.00,2013-02-19 13:55:00,
2013-02-19 08:56:00,64.4,57.8,30.17,SE,132,2.0,2.0,79,0.00,,---,0.00,VWS V14.00,2013-02-19 13:56:00,
2013-02-19 09:00:00,72.8,59.5,30.16,ESE,121,8.0,13.0,63,0.00,,---,0.00,VWS V14.00,2013-02-19 14:00:00,
2013-02-19 09:01:00,65.5,57.4,30.17,SE,136,1.0,4.0,75,0.00,,---,0.00,VWS V14.00,2013-02-19 14:01:00,
2013-02-19 09:05:00,73.1,59.8,30.16,SSE,158,11.0,12.0,63,0.00,,---,0.00,VWS V14.00,2013-02-19 14:05:00,
2013-02-19 09:06:00,66.4,57.9,30.17,SSE,157,6.0,6.0,74,0.00,,---,0.00,VWS V14.00,2013-02-19 14:06:00,
2013-02-19 09:10:00,73.3,60.0,30.16,SE,134,6.0,13.0,63,0.00,,---,0.00,VWS V14.00,2013-02-19 14:10:00,
2013-02-19 09:11:00,67.2,58.3,30.17,SE,132,7.0,8.0,73,0.00,,---,0.00,VWS V14.00,2013-02-19 14:11:00,
2013-02-19 09:15:00,73.8,60.4,30.16,SSE,149,6.0,12.0,63,0.00,,---,0.00,VWS V14.00,2013-02-19 14:15:00,
2013-02-19 09:16:00,67.7,58.0,30.16,ESE,123,3.0,3.0,71,0.00,,---,0.00,VWS V14.00,2013-02-19 14:16:00,
2013-02-19 09:20:00,74.2,59.9,30.16,SE,135,5.0,12.0,61,0.00,,---,0.00,VWS V14.00,2013-02-19 14:20:00,
2013-02-19 09:21:00,68.5,58.3,30.16,SE,143,4.0,5.0,70,0.00,,---,0.00,VWS V14.00,2013-02-19 14:21:00,
2013-02-19 09:25:00,74.3,60.5,30.16,South,177,7.0,11.0,62,0.00,,---,0.00,VWS V14.00,2013-02-19 14:25:00,
2013-02-19 09:26:00,68.9,58.3,30.16,SE,144,2.0,2.0,69,0.00,,---,0.00,VWS V14.00,2013-02-19 14:26:00,
2013-02-19 09:30:00,74.4,60.1,30.16,SSE,149,10.0,14.0,61,0.00,,---,0.00,VWS V14.00,2013-02-19 14:30:00,
2013-02-19 09:31:00,69.5,58.1,30.16,ESE,121,1.0,5.0,67,0.00,,---,0.00,VWS V14.00,2013-02-19 14:31:00,
2013-02-19 09:35:00,74.7,60.4,30.16,SSE,156,7.0,18.0,61,0.00,,---,0.00,VWS V14.00,2013-02-19 14:35:00,
2013-02-19 09:36:00,70.3,58.8,30.16,ESE,123,5.0,7.0,67,0.00,,---,0.00,VWS V14.00,2013-02-19 14:36:00,
2013-02-19 09:40:00,74.8,60.0,30.16,SSE,148,6.0,12.0,60,0.00,,---,0.00,VWS V14.00,2013-02-19 14:40:00,
2013-02-19 09:41:00,70.8,58.9,30.16,SE,140,5.0,6.0,66,0.00,,---,0.00,VWS V14.00,2013-02-19 14:41:00,
2013-02-19 09:45:00,74.7,60.4,30.16,ESE,111,5.0,13.0,61,0.00,,---,0.00,VWS V14.00,2013-02-19 14:45:00,
2013-02-19 09:46:00,71.3,58.9,30.16,SE,141,4.0,4.0,65,0.00,,---,0.00,VWS V14.00,2013-02-19 14:46:00,
2013-02-19 09:50:00,75.4,60.1,30.16,SE,133,4.0,11.0,59,0.00,,---,0.00,VWS V14.00,2013-02-19 14:50:00,
2013-02-19 09:51:00,72.0,59.6,30.16,SE,130,5.0,10.0,65,0.00,,---,0.00,VWS V14.00,2013-02-19 14:51:00,
2013-02-19 09:55:00,76.1,61.2,30.16,SSE,151,8.0,10.0,60,0.00,,---,0.00,VWS V14.00,2013-02-19 14:55:00,
2013-02-19 09:56:00,72.5,59.6,30.17,SE,135,8.0,8.0,64,0.00,,---,0.00,VWS V14.00,2013-02-19 14:56:00,
2013-02-19 10:00:00,76.8,60.9,30.16,ESE,123,7.0,10.0,58,0.00,,---,0.00,VWS V14.00,2013-02-19 15:00:00,
2013-02-19 10:01:00,72.8,59.5,30.16,ESE,111,8.0,9.0,63,0.00,,---,0.00,VWS V14.00,2013-02-19 15:01:00,
2013-02-19 10:05:00,77.2,60.8,30.16,SSE,149,7.0,15.0,57,0.00,,---,0.00,VWS V14.00,2013-02-19 15:05:00,
2013-02-19 10:06:00,73.1,59.8,30.16,East,101,8.0,11.0,63,0.00,,---,0.00,VWS V14.00,2013-02-19 15:06:00,
2013-02-19 10:10:00,77.4,60.5,30.16,SSE,148,6.0,9.0,56,0.00,,---,0.00,VWS V14.00,2013-02-19 15:10:00,
2013-02-19 10:11:00,73.3,60.4,30.16,ESE,105,5.0,6.0,64,0.00,,---,0.00,VWS V14.00,2013-02-19 15:11:00,
2013-02-19 10:15:00,78.0,60.5,30.16,SE,146,7.0,11.0,55,0.00,,---,0.00,VWS V14.00,2013-02-19 15:15:00,
2013-02-19 10:16:00,73.8,60.4,30.16,SE,146,7.0,7.0,63,0.00,,---,0.00,VWS V14.00,2013-02-19 15:16:00,
2013-02-19 10:20:00,77.8,60.4,30.17,SSE,164,7.0,9.0,55,0.00,,---,0.00,VWS V14.00,2013-02-19 15:20:00,
2013-02-19 10:21:00,74.3,60.0,30.16,SE,129,5.0,5.0,61,0.00,,---,0.00,VWS V14.00,2013-02-19 15:21:00,
2013-02-19 10:25:00,77.4,61.0,30.16,South,169,5.0,12.0,57,0.00,,---,0.00,VWS V14.00,2013-02-19 15:25:00,
2013-02-19 10:26:00,74.3,60.5,30.16,South,180,6.0,7.0,62,0.00,,---,0.00,VWS V14.00,2013-02-19 15:26:00,
2013-02-19 10:30:00,77.6,61.7,30.16,SSE,152,4.0,8.0,58,0.00,,---,0.00,VWS V14.00,2013-02-19 15:30:00,
2013-02-19 10:31:00,74.4,60.1,30.16,SE,140,12.0,12.0,61,0.00,,---,0.00,VWS V14.00,2013-02-19 15:31:00,
2013-02-19 10:35:00,77.9,60.5,30.16,SSE,151,2.0,10.0,55,0.00,,---,0.00,VWS V14.00,2013-02-19 15:35:00,
2013-02-19 10:36:00,74.7,60.4,30.16,South,169,7.0,7.0,61,0.00,,---,0.00,VWS V14.00,2013-02-19 15:36:00,
2013-02-19 10:41:00,74.8,60.0,30.16,SE,139,5.0,6.0,60,0.00,,---,0.00,VWS V14.00,2013-02-19 15:41:00,
2013-02-19 10:45:00,77.8,61.8,30.16,South,174,6.0,6.0,58,0.00,,---,0.00,VWS V14.00,2013-02-19 15:45:00,
2013-02-19 10:46:00,74.7,60.4,30.16,ESE,111,6.0,6.0,61,0.00,,---,0.00,VWS V14.00,2013-02-19 15:46:00,
2013-02-19 10:50:00,78.1,62.1,30.16,SE,140,6.0,8.0,58,0.00,,---,0.00,VWS V14.00,2013-02-19 15:50:00,
2013-02-19 10:51:00,75.4,60.1,30.16,SE,133,4.0,4.0,59,0.00,,---,0.00,VWS V14.00,2013-02-19 15:51:00,
2013-02-19 10:55:00,76.1,61.2,30.16,SSE,151,8.0,10.0,60,0.00,,---,0.00,VWS V14.00,2013-02-19 15:55:00,
2013-02-19 11:00:00,78.0,60.5,30.15,SSE,155,5.0,7.0,55,0.00,,---,0.00,VWS V14.00,2013-02-19 16:00:00,
2013-02-19 11:01:00,76.8,60.9,30.16,ESE,123,7.0,10.0,58,0.00,,---,0.00,VWS V14.00,2013-02-19 16:01:00,
2013-02-19 11:05:00,77.5,61.1,30.15,SSE,163,7.0,7.0,57,0.00,,---,0.00,VWS V14.00,2013-02-19 16:05:00,
2013-02-19 11:06:00,77.2,60.8,30.16,South,174,7.0,7.0,57,0.00,,---,0.00,VWS V14.00,2013-02-19 16:06:00,
2013-02-19 11:10:00,77.4,61.0,30.15,South,177,0.0,7.0,57,0.00,,---,0.00,VWS V14.00,2013-02-19 16:10:00,
2013-02-19 11:11:00,77.4,60.5,30.16,ESE,117,4.0,6.0,56,0.00,,---,0.00,VWS V14.00,2013-02-19 16:11:00,
2013-02-19 11:15:00,77.0,60.6,30.15,South,177,0.0,12.0,57,0.00,,---,0.00,VWS V14.00,2013-02-19 16:15:00,
2013-02-19 11:16:00,78.0,60.5,30.16,SE,146,5.0,7.0,55,0.00,,---,0.00,VWS V14.00,2013-02-19 16:16:00,
2013-02-19 11:20:00,76.9,61.0,30.15,ENE,76,3.0,6.0,58,0.00,,---,0.00,VWS V14.00,2013-02-19 16:20:00,
2013-02-19 11:21:00,77.8,60.4,30.17,SSE,166,7.0,7.0,55,0.00,,---,0.00,VWS V14.00,2013-02-19 16:21:00,
2013-02-19 11:25:00,76.9,61.0,30.14,South,178,1.0,6.0,58,0.00,,---,0.00,VWS V14.00,2013-02-19 16:25:00,
2013-02-19 11:26:00,77.4,61.0,30.16,SSE,167,5.0,5.0,57,0.00,,---,0.00,VWS V14.00,2013-02-19 16:26:00,
2013-02-19 11:30:00,77.1,60.7,30.14,South,189,0.0,5.0,57,0.00,,---,0.00,VWS V14.00,2013-02-19 16:30:00,
2013-02-19 11:31:00,77.6,61.7,30.16,SSE,152,2.0,4.0,58,0.00,,---,0.00,VWS V14.00,2013-02-19 16:31:00,
2013-02-19 11:35:00,77.0,60.6,30.14,SSW,203,0.0,6.0,57,0.00,,---,0.00,VWS V14.00,2013-02-19 16:35:00,
2013-02-19 11:36:00,77.9,60.5,30.16,SSE,151,1.0,2.0,55,0.00,,---,0.00,VWS V14.00,2013-02-19 16:36:00,
2013-02-19 11:40:00,77.0,61.1,30.13,South,190,1.0,3.0,58,0.00,,---,0.00,VWS V14.00,2013-02-19 16:40:00,
2013-02-19 11:41:00,77.5,60.6,30.16,SE,131,3.0,4.0,56,0.00,,---,0.00,VWS V14.00,2013-02-19 16:41:00,
2013-02-19 11:45:00,77.7,61.8,30.13,SSE,154,2.0,9.0,58,0.00,,---,0.00,VWS V14.00,2013-02-19 16:45:00,
2013-02-19 11:46:00,77.8,61.9,30.16,South,174,5.0,6.0,58,0.00,,---,0.00,VWS V14.00,2013-02-19 16:46:00,
2013-02-19 11:50:00,78.7,62.2,30.13,SE,144,3.0,5.0,57,0.00,,---,0.00,VWS V14.00,2013-02-19 16:50:00,
2013-02-19 11:51:00,78.2,61.7,30.15,SE,140,5.0,6.0,57,0.00,,---,0.00,VWS V14.00,2013-02-19 16:51:00,
2013-02-19 11:55:00,79.7,62.1,30.12,ESE,121,0.0,5.0,55,0.00,,---,0.00,VWS V14.00,2013-02-19 16:55:00,
2013-02-19 11:56:00,78.6,61.1,30.16,South,178,3.0,3.0,55,0.00,,---,0.00,VWS V14.00,2013-02-19 16:56:00,
2013-02-19 12:00:00,79.9,61.3,30.12,SSW,203,0.0,6.0,53,0.00,,---,0.00,VWS V14.00,2013-02-19 17:00:00,
2013-02-19 12:01:00,78.0,60.5,30.15,SSE,155,2.0,4.0,55,0.00,,---,0.00,VWS V14.00,2013-02-19 17:01:00,
2013-02-19 12:05:00,79.4,60.8,30.12,SW,225,0.0,8.0,53,0.00,,---,0.00,VWS V14.00,2013-02-19 17:05:00,
2013-02-19 12:06:00,77.5,61.1,30.15,SSE,163,4.0,7.0,57,0.00,,---,0.00,VWS V14.00,2013-02-19 17:06:00,
2013-02-19 12:10:00,78.7,61.2,30.12,SSW,210,4.0,8.0,55,0.00,,---,0.00,VWS V14.00,2013-02-19 17:10:00,
2013-02-19 12:11:00,77.4,61.0,30.15,South,178,0.0,0.0,57,0.00,,---,0.00,VWS V14.00,2013-02-19 17:11:00,
2013-02-19 12:15:00,78.3,61.3,30.12,SSE,164,0.0,6.0,56,0.00,,---,0.00,VWS V14.00,2013-02-19 17:15:00,
2013-02-19 12:16:00,76.9,60.5,30.15,South,177,0.0,0.0,57,0.00,,---,0.00,VWS V14.00,2013-02-19 17:16:00,
2013-02-19 12:20:00,78.2,61.2,30.11,SSE,160,2.0,7.0,56,0.00,,---,0.00,VWS V14.00,2013-02-19 17:20:00,
2013-02-19 12:21:00,76.9,61.0,30.15,East,91,4.0,4.0,58,0.00,,---,0.00,VWS V14.00,2013-02-19 17:21:00,
2013-02-19 12:26:00,76.9,61.0,30.14,South,178,0.0,1.0,58,0.00,,---,0.00,VWS V14.00,2013-02-19 17:26:00,
2013-02-19 12:30:00,78.6,60.6,30.11,SSW,208,2.0,7.0,54,0.00,,---,0.00,VWS V14.00,2013-02-19 17:30:00,
2013-02-19 12:31:00,77.1,60.7,30.14,South,189,0.0,1.0,57,0.00,,---,0.00,VWS V14.00,2013-02-19 17:31:00,
2013-02-19 12:35:00,78.9,60.9,30.10,SW,215,0.0,5.0,54,0.00,,---,0.00,VWS V14.00,2013-02-19 17:35:00,
2013-02-19 12:36:00,77.0,60.6,30.14,SSW,203,0.0,0.0,57,0.00,,---,0.00,VWS V14.00,2013-02-19 17:36:00,
2013-02-19 12:40:00,79.4,61.8,30.10,SSW,213,4.0,8.0,55,0.00,,---,0.00,VWS V14.00,2013-02-19 17:40:00,
2013-02-19 12:41:00,77.0,61.1,30.13,South,190,1.0,1.0,58,0.00,,---,0.00,VWS V14.00,2013-02-19 17:41:00,
2013-02-19 12:45:00,79.6,61.5,30.10,SW,228,0.0,6.0,54,0.00,,---,0.00,VWS V14.00,2013-02-19 17:45:00,
2013-02-19 12:46:00,77.8,61.9,30.13,SSE,153,3.0,3.0,58,0.00,,---,0.00,VWS V14.00,2013-02-19 17:46:00,
2013-02-19 12:50:00,80.2,60.5,30.10,South,185,8.0,12.0,51,0.00,,---,0.00,VWS V14.00,2013-02-19 17:50:00,
2013-02-19 12:51:00,78.7,62.2,30.13,SE,144,1.0,3.0,57,0.00,,---,0.00,VWS V14.00,2013-02-19 17:51:00,
2013-02-19 12:55:00,79.5,61.4,30.10,SW,231,0.0,8.0,54,0.00,,---,0.00,VWS V14.00,2013-02-19 17:55:00,
2013-02-19 12:56:00,79.7,62.1,30.12,ESE,121,0.0,0.0,55,0.00,,---,0.00,VWS V14.00,2013-02-19 17:56:00,
2013-02-19 13:00:00,79.8,61.7,30.09,South,175,5.0,8.0,54,0.00,,---,0.00,VWS V14.00,2013-02-19 18:00:00,
2013-02-19 13:01:00,79.9,61.3,30.12,SSW,203,0.0,0.0,53,0.00,,---,0.00,VWS V14.00,2013-02-19 18:01:00,
2013-02-19 13:05:00,79.5,60.9,30.09,SW,223,0.0,7.0,53,0.00,,---,0.00,VWS V14.00,2013-02-19 18:05:00,
2013-02-19 13:06:00,79.4,60.8,30.12,SW,225,0.0,0.0,53,0.00,,---,0.00,VWS V14.00,2013-02-19 18:06:00,
2013-02-19 13:10:00,79.9,61.8,30.09,SSW,197,5.0,6.0,54,0.00,,---,0.00,VWS V14.00,2013-02-19 18:10:00,
2013-02-19 13:11:00,78.7,61.2,30.12,SSW,211,5.0,5.0,55,0.00,,---,0.00,VWS V14.00,2013-02-19 18:11:00,
2013-02-19 13:15:00,80.7,60.3,30.08,SW,218,2.0,11.0,50,0.00,,---,0.00,VWS V14.00,2013-02-19 18:15:00,
2013-02-19 13:16:00,78.3,61.3,30.12,SSE,164,0.0,0.0,56,0.00,,---,0.00,VWS V14.00,2013-02-19 18:16:00,
2013-02-19 13:20:00,81.4,61.0,30.09,SW,219,7.0,8.0,50,0.00,,---,0.00,VWS V14.00,2013-02-19 18:20:00,
2013-02-19 13:21:00,78.2,61.2,30.11,SSE,160,2.0,2.0,56,0.00,,---,0.00,VWS V14.00,2013-02-19 18:21:00,
2013-02-19 13:25:00,81.7,60.1,30.09,SW,236,4.0,13.0,48,0.00,,---,0.00,VWS V14.00,2013-02-19 18:25:00,
2013-02-19 13:26:00,78.3,60.8,30.11,South,176,0.0,1.0,55,0.00,,---,0.00,VWS V14.00,2013-02-19 18:26:00,
2013-02-19 13:30:00,81.0,60.6,30.09,SW,219,2.0,9.0,50,0.00,,---,0.00,VWS V14.00,2013-02-19 18:30:00,
2013-02-19 13:31:00,78.6,60.6,30.10,SSW,208,2.0,2.0,54,0.00,,---,0.00,VWS V14.00,2013-02-19 18:31:00,
2013-02-19 13:35:00,80.7,61.5,30.09,West,263,0.0,5.0,52,0.00,,---,0.00,VWS V14.00,2013-02-19 18:35:00,
2013-02-19 13:36:00,78.9,60.9,30.10,SW,215,0.0,5.0,54,0.00,,---,0.00,VWS V14.00,2013-02-19 18:36:00,
2013-02-19 13:40:00,80.8,61.5,30.09,WNW,289,0.0,7.0,52,0.00,,---,0.00,VWS V14.00,2013-02-19 18:40:00,
2013-02-19 13:41:00,79.4,61.8,30.10,SSW,213,4.0,8.0,55,0.00,,---,0.00,VWS V14.00,2013-02-19 18:41:00,
2013-02-19 13:45:00,80.4,61.2,30.09,SW,220,5.0,9.0,52,0.00,,---,0.00,VWS V14.00,2013-02-19 18:45:00,
2013-02-19 13:46:00,79.6,61.5,30.10,SW,228,0.0,0.0,54,0.00,,---,0.00,VWS V14.00,2013-02-19 18:46:00,
2013-02-19 13:50:00,80.5,60.2,30.08,WNW,282,5.0,9.0,50,0.00,,---,0.00,VWS V14.00,2013-02-19 18:50:00,
2013-02-19 13:51:00,80.2,60.5,30.10,South,188,6.0,8.0,51,0.00,,---,0.00,VWS V14.00,2013-02-19 18:51:00,
2013-02-19 13:55:00,80.4,59.5,30.09,SW,223,6.0,12.0,49,0.00,,---,0.00,VWS V14.00,2013-02-19 18:55:00,
2013-02-19 13:56:00,79.5,61.4,30.10,SW,231,0.0,8.0,54,0.00,,---,0.00,VWS V14.00,2013-02-19 18:56:00,
2013-02-19 14:00:00,79.4,59.2,30.08,WSW,252,5.0,9.0,50,0.00,,---,0.00,VWS V14.00,2013-02-19 19:00:00,
2013-02-19 14:01:00,79.8,61.7,30.09,South,175,5.0,8.0,54,0.00,,---,0.00,VWS V14.00,2013-02-19 19:01:00,
2013-02-19 14:05:00,79.6,58.8,30.08,SW,231,9.0,9.0,49,0.00,,---,0.00,VWS V14.00,2013-02-19 19:05:00,
2013-02-19 14:06:00,79.4,60.8,30.09,SW,222,0.0,0.0,53,0.00,,---,0.00,VWS V14.00,2013-02-19 19:06:00,
2013-02-19 14:10:00,79.8,58.4,30.08,WNW,293,5.0,16.0,48,0.00,,---,0.00,VWS V14.00,2013-02-19 19:10:00,
2013-02-19 14:11:00,79.9,61.8,30.09,SSW,196,6.0,6.0,54,0.00,,---,0.00,VWS V14.00,2013-02-19 19:11:00,
2013-02-19 14:15:00,79.4,59.7,30.08,WNW,289,1.0,10.0,51,0.00,,---,0.00,VWS V14.00,2013-02-19 19:15:00,
2013-02-19 14:16:00,80.7,60.3,30.09,SW,218,3.0,3.0,50,0.00,,---,0.00,VWS V14.00,2013-02-19 19:16:00,
2013-02-19 14:20:00,79.3,60.7,30.08,WNW,298,1.0,9.0,53,0.00,,---,0.00,VWS V14.00,2013-02-19 19:20:00,
2013-02-19 14:21:00,81.4,61.0,30.09,WNW,291,10.0,10.0,50,0.00,,---,0.00,VWS V14.00,2013-02-19 19:21:00,
2013-02-19 14:25:00,80.1,59.8,30.08,SW,232,9.0,11.0,50,0.00,,---,0.00,VWS V14.00,2013-02-19 19:25:00,
2013-02-19 14:26:00,81.7,60.1,30.09,WSW,242,2.0,4.0,48,0.00,,---,0.00,VWS V14.00,2013-02-19 19:26:00,
2013-02-19 14:30:00,80.8,58.1,30.08,SW,220,5.0,14.0,46,0.00,,---,0.00,VWS V14.00,2013-02-19 19:30:00,
2013-02-19 14:31:00,81.0,60.6,30.09,SW,219,1.0,2.0,50,0.00,,---,0.00,VWS V14.00,2013-02-19 19:31:00,
2013-02-19 14:35:00,80.4,58.3,30.08,WSW,255,1.0,11.0,47,0.00,,---,0.00,VWS V14.00,2013-02-19 19:35:00,
2013-02-19 14:36:00,80.7,61.5,30.09,West,265,0.0,0.0,52,0.00,,---,0.00,VWS V14.00,2013-02-19 19:36:00,
2013-02-19 14:40:00,80.0,59.7,30.07,SW,233,10.0,16.0,50,0.00,,---,0.00,VWS V14.00,2013-02-19 19:40:00,
2013-02-19 14:41:00,80.8,61.5,30.09,WNW,289,0.0,0.0,52,0.00,,---,0.00,VWS V14.00,2013-02-19 19:41:00,
2013-02-19 14:45:00,80.3,60.0,30.07,SW,234,7.0,14.0,50,0.00,,---,0.00,VWS V14.00,2013-02-19 19:45:00,
2013-02-19 14:46:00,80.4,61.2,30.09,SW,220,5.0,9.0,52,0.00,,---,0.00,VWS V14.00,2013-02-19 19:46:00,
2013-02-19 14:50:00,80.5,61.3,30.07,South,188,8.0,13.0,52,0.00,,---,0.00,VWS V14.00,2013-02-19 19:50:00,
2013-02-19 14:51:00,80.5,60.2,30.08,WNW,282,5.0,9.0,50,0.00,,---,0.00,VWS V14.00,2013-02-19 19:51:00,
2013-02-19 14:55:00,80.3,61.6,30.07,WSW,240,8.0,11.0,53,0.00,,---,0.00,VWS V14.00,2013-02-19 19:55:00,
2013-02-19 14:56:00,80.3,59.4,30.09,SW,232,9.0,9.0,49,0.00,,---,0.00,VWS V14.00,2013-02-19 19:56:00,
2013-02-19 15:00:00,80.0,61.3,30.07,SW,216,6.0,11.0,53,0.00,,---,0.00,VWS V14.00,2013-02-19 20:00:00,
2013-02-19 15:01:00,79.4,59.2,30.08,WSW,252,5.0,9.0,50,0.00,,---,0.00,VWS V14.00,2013-02-19 20:01:00,
2013-02-19 15:05:00,79.9,60.7,30.06,SSW,199,7.0,11.0,52,0.00,,---,0.00,VWS V14.00,2013-02-19 20:05:00,
2013-02-19 15:06:00,79.6,58.8,30.08,WSW,251,6.0,9.0,49,0.00,,---,0.00,VWS V14.00,2013-02-19 20:06:00,
2013-02-19 15:10:00,79.4,60.3,30.06,SSW,213,7.0,15.0,52,0.00,,---,0.00,VWS V14.00,2013-02-19 20:10:00,
2013-02-19 15:11:00,79.8,58.4,30.08,WNW,291,4.0,5.0,48,0.00,,---,0.00,VWS V14.00,2013-02-19 20:11:00,
2013-02-19 15:15:00,79.4,60.8,30.07,WSW,247,0.0,11.0,53,0.00,,---,0.00,VWS V14.00,2013-02-19 20:15:00,
2013-02-19 15:16:00,79.4,59.7,30.08,WNW,289,0.0,1.0,51,0.00,,---,0.00,VWS V14.00,2013-02-19 20:16:00,
2013-02-19 15:20:00,79.8,60.1,30.07,SW,236,3.0,13.0,51,0.00,,---,0.00,VWS V14.00,2013-02-19 20:20:00,
2013-02-19 15:21:00,79.3,60.7,30.08,WNW,298,0.0,1.0,53,0.00,,---,0.00,VWS V14.00,2013-02-19 20:21:00,
2013-02-19 15:25:00,80.1,59.8,30.07,SSW,211,11.0,11.0,50,0.00,,---,0.00,VWS V14.00,2013-02-19 20:25:00,
2013-02-19 15:30:00,80.8,58.1,30.08,SW,220,5.0,14.0,46,0.00,,---,0.00,VWS V14.00,2013-02-19 20:30:00,
2013-02-19 15:35:00,80.4,58.3,30.08,WSW,255,1.0,11.0,47,0.00,,---,0.00,VWS V14.00,2013-02-19 20:35:00,
2013-02-19 15:40:00,79.7,60.5,30.06,West,277,0.0,7.0,52,0.00,,---,0.00,VWS V14.00,2013-02-19 20:40:00,
2013-02-19 15:41:00,80.0,59.7,30.07,SW,233,10.0,16.0,50,0.00,,---,0.00,VWS V14.00,2013-02-19 20:41:00,
2013-02-19 15:45:00,79.2,60.1,30.07,West,281,7.0,13.0,52,0.00,,---,0.00,VWS V14.00,2013-02-19 20:45:00,
2013-02-19 15:46:00,80.3,60.0,30.07,SW,234,7.0,14.0,50,0.00,,---,0.00,VWS V14.00,2013-02-19 20:46:00,
2013-02-19 15:50:00,80.5,61.3,30.07,SSW,194,8.0,13.0,52,0.00,,---,0.00,VWS V14.00,2013-02-19 20:50:00,
2013-02-19 15:55:00,80.3,61.6,30.07,SW,219,2.0,11.0,53,0.00,,---,0.00,VWS V14.00,2013-02-19 20:55:00,
2013-02-19 16:00:00,80.0,61.3,30.07,SW,215,8.0,11.0,53,0.00,,---,0.00,VWS V14.00,2013-02-19 21:00:00,
2013-02-19 16:05:00,79.9,60.7,30.06,SSW,199,7.0,11.0,52,0.00,,---,0.00,VWS V14.00,2013-02-19 21:05:00,
2013-02-19 16:10:00,79.4,60.3,30.06,SSW,213,7.0,15.0,52,0.00,,---,0.00,VWS V14.00,2013-02-19 21:10:00,
2013-02-19 16:15:00,79.4,60.8,30.07,WSW,247,0.0,11.0,53,0.00,,---,0.00,VWS V14.00,2013-02-19 21:15:00,
2013-02-19 16:20:00,79.8,60.1,30.07,SW,236,3.0,13.0,51,0.00,,---,0.00,VWS V14.00,2013-02-19 21:20:00,
2013-02-19 16:25:00,80.0,61.3,30.07,WSW,248,10.0,10.0,53,0.00,,---,0.00,VWS V14.00,2013-02-19 21:25:00,
2013-02-19 16:30:00,80.2,60.5,30.07,West,276,6.0,13.0,51,0.00,,---,0.00,VWS V14.00,2013-02-19 21:30:00,
2013-02-19 16:35:00,80.1,60.4,30.07,WNW,285,0.0,10.0,51,0.00,,---,0.00,VWS V14.00,2013-02-19 21:35:00,
2013-02-19 16:40:00,79.7,60.5,30.06,West,277,0.0,7.0,52,0.00,,---,0.00,VWS V14.00,2013-02-19 21:40:00,
2013-02-19 16:45:00,79.2,60.1,30.07,WSW,254,4.0,13.0,52,0.00,,---,0.00,VWS V14.00,2013-02-19 21:45:00,
2013-02-19 16:50:00,78.8,60.2,30.07,WNW,282,0.0,10.0,53,0.00,,---,0.00,VWS V14.00,2013-02-19 21:50:00,
2013-02-19 16:55:00,78.5,61.0,30.06,SSW,210,0.0,9.0,55,0.00,,---,0.00,VWS V14.00,2013-02-19 21:55:00,
2013-02-19 17:00:00,77.7,59.8,30.07,SW,223,7.0,11.0,54,0.00,,---,0.00,VWS V14.00,2013-02-19 22:00:00,
2013-02-19 17:05:00,77.0,59.6,30.07,West,260,0.0,12.0,55,0.00,,---,0.00,VWS V14.00,2013-02-19 22:05:00,
2013-02-19 17:10:00,76.9,59.5,30.07,SW,219,0.0,9.0,55,0.00,,---,0.00,VWS V14.00,2013-02-19 22:10:00,
2013-02-19 17:15:00,76.9,60.5,30.07,SW,227,5.0,10.0,57,0.00,,---,0.00,VWS V14.00,2013-02-19 22:15:00,
2013-02-19 17:20:00,76.5,60.6,30.07,SW,225,0.0,7.0,58,0.00,,---,0.00,VWS V14.00,2013-02-19 22:20:00,
2013-02-19 17:25:00,76.2,59.4,30.07,SW,227,7.0,12.0,56,0.00,,---,0.00,VWS V14.00,2013-02-19 22:25:00,
2013-02-19 17:30:00,76.0,59.7,30.07,SW,225,0.0,10.0,57,0.00,,---,0.00,VWS V14.00,2013-02-19 22:30:00,
2013-02-19 17:35:00,75.9,60.1,30.07,West,271,0.0,8.0,58,0.00,,---,0.00,VWS V14.00,2013-02-19 22:35:00,
2013-02-19 17:40:00,75.7,60.4,30.07,WSW,242,0.0,7.0,59,0.00,,---,0.00,VWS V14.00,2013-02-19 22:40:00,
2013-02-19 17:45:00,75.5,60.7,30.08,SW,229,0.0,5.0,60,0.00,,---,0.00,VWS V14.00,2013-02-19 22:45:00,
2013-02-19 17:50:00,75.3,60.5,30.08,WSW,246,0.0,2.0,60,0.00,,---,0.00,VWS V14.00,2013-02-19 22:50:00,
2013-02-19 17:55:00,75.0,60.7,30.08,WSW,238,0.0,4.0,61,0.00,,---,0.00,VWS V14.00,2013-02-19 22:55:00,
2013-02-19 18:00:00,74.7,60.4,30.08,SW,236,0.0,0.0,61,0.00,,---,0.00,VWS V14.00,2013-02-19 23:00:00,
2013-02-19 18:05:00,74.3,60.9,30.08,SW,221,0.0,5.0,63,0.00,,---,0.00,VWS V14.00,2013-02-19 23:05:00,
2013-02-19 18:10:00,74.0,61.1,30.08,SW,221,0.0,2.0,64,0.00,,---,0.00,VWS V14.00,2013-02-19 23:10:00,
2013-02-19 18:15:00,73.7,61.2,30.08,SW,221,0.0,0.0,65,0.00,,---,0.00,VWS V14.00,2013-02-19 23:15:00,
2013-02-19 18:20:00,73.3,61.3,30.08,SW,221,0.0,0.0,66,0.00,,---,0.00,VWS V14.00,2013-02-19 23:20:00,
2013-02-19 18:25:00,72.8,61.2,30.08,SW,221,0.0,0.0,67,0.00,,---,0.00,VWS V14.00,2013-02-19 23:25:00,
2013-02-19 18:30:00,72.4,60.8,30.08,SW,221,0.0,0.0,67,0.00,,---,0.00,VWS V14.00,2013-02-19 23:30:00,
2013-02-19 18:35:00,72.1,61.4,30.08,SW,221,0.0,0.0,69,0.00,,---,0.00,VWS V14.00,2013-02-19 23:35:00,
2013-02-19 18:40:00,71.7,61.0,30.08,SW,221,0.0,0.0,69,0.00,,---,0.00,VWS V14.00,2013-02-19 23:40:00,
2013-02-19 18:45:00,71.4,61.1,30.08,SW,221,0.0,0.0,70,0.00,,---,0.00,VWS V14.00,2013-02-19 23:45:00,
2013-02-19 18:50:00,71.0,61.1,30.08,SW,221,0.0,0.0,71,0.00,,---,0.00,VWS V14.00,2013-02-19 23:50:00,
2013-02-19 18:55:00,70.7,61.2,30.09,SW,221,0.0,0.0,72,0.00,,---,0.00,VWS V14.00,2013-02-19 23:55:00,
2013-02-19 19:00:00,70.3,61.2,30.09,SW,221,0.0,0.0,73,0.00,,---,0.00,VWS V14.00,2013-02-20 00:00:00,
2013-02-19 19:05:00,70.0,61.3,30.09,SW,221,0.0,0.0,74,0.00,,---,0.00,VWS V14.00,2013-02-20 00:05:00,
2013-02-19 19:10:00,69.7,61.4,30.09,SW,221,0.0,0.0,75,0.00,,---,0.00,VWS V14.00,2013-02-20 00:10:00,
2013-02-19 19:15:00,69.5,61.6,30.09,SW,221,0.0,0.0,76,0.00,,---,0.00,VWS V14.00,2013-02-20 00:15:00,
2013-02-19 19:20:00,69.4,61.5,30.09,SW,221,0.0,0.0,76,0.00,,---,0.00,VWS V14.00,2013-02-20 00:20:00,
2013-02-19 19:25:00,69.3,61.4,30.09,SW,221,0.0,0.0,76,0.00,,---,0.00,VWS V14.00,2013-02-20 00:25:00,
2013-02-19 19:30:00,69.2,61.7,30.09,SW,221,0.0,0.0,77,0.00,,---,0.00,VWS V14.00,2013-02-20 00:30:00,
2013-02-19 19:35:00,69.1,61.6,30.09,SW,221,0.0,0.0,77,0.00,,---,0.00,VWS V14.00,2013-02-20 00:35:00,
2013-02-19 19:40:00,68.9,61.4,30.09,SW,221,0.0,0.0,77,0.00,,---,0.00,VWS V14.00,2013-02-20 00:40:00,
2013-02-19 19:45:00,68.6,61.5,30.09,SW,221,0.0,0.0,78,0.00,,---,0.00,VWS V14.00,2013-02-20 00:45:00,
2013-02-19 19:50:00,68.3,61.2,30.09,SW,221,0.0,0.0,78,0.00,,---,0.00,VWS V14.00,2013-02-20 00:50:00,
2013-02-19 19:55:00,67.9,61.5,30.09,SW,221,0.0,0.0,80,0.00,,---,0.00,VWS V14.00,2013-02-20 00:55:00,
2013-02-19 20:00:00,67.7,61.7,30.09,SW,221,0.0,0.0,81,0.00,,---,0.00,VWS V14.00,2013-02-20 01:00:00,
2013-02-19 20:05:00,67.4,61.4,30.09,SW,221,0.0,0.0,81,0.00,,---,0.00,VWS V14.00,2013-02-20 01:05:00,
2013-02-19 20:10:00,67.1,61.1,30.09,SW,221,0.0,0.0,81,0.00,,---,0.00,VWS V14.00,2013-02-20 01:10:00,
2013-02-19 20:15:00,66.8,61.1,30.09,SW,221,0.0,0.0,82,0.00,,---,0.00,VWS V14.00,2013-02-20 01:15:00,
2013-02-19 20:20:00,66.5,61.2,30.09,SW,221,0.0,0.0,83,0.00,,---,0.00,VWS V14.00,2013-02-20 01:20:00,
2013-02-19 20:25:00,66.2,60.9,30.09,SW,221,0.0,0.0,83,0.00,,---,0.00,VWS V14.00,2013-02-20 01:25:00,
2013-02-19 20:30:00,65.9,60.9,30.09,SW,221,0.0,0.0,84,0.00,,---,0.00,VWS V14.00,2013-02-20 01:30:00,
2013-02-19 20:35:00,65.6,61.0,30.09,SW,221,0.0,0.0,85,0.00,,---,0.00,VWS V14.00,2013-02-20 01:35:00,
2013-02-19 20:40:00,65.4,60.8,30.09,SW,221,0.0,0.0,85,0.00,,---,0.00,VWS V14.00,2013-02-20 01:40:00,
2013-02-19 20:45:00,65.1,60.8,30.09,SW,221,0.0,0.0,86,0.00,,---,0.00,VWS V14.00,2013-02-20 01:45:00,
2013-02-19 20:50:00,64.8,60.8,30.09,SW,221,0.0,0.0,87,0.00,,---,0.00,VWS V14.00,2013-02-20 01:50:00,
2013-02-19 20:55:00,64.5,60.5,30.09,SW,221,0.0,0.0,87,0.00,,---,0.00,VWS V14.00,2013-02-20 01:55:00,
2013-02-19 21:00:00,64.2,60.3,30.09,SW,221,0.0,0.0,87,0.00,,---,0.00,VWS V14.00,2013-02-20 02:00:00,
2013-02-19 21:05:00,63.9,60.3,30.09,SW,221,0.0,0.0,88,0.00,,---,0.00,VWS V14.00,2013-02-20 02:05:00,
2013-02-19 21:10:00,63.7,60.1,30.09,SW,221,0.0,0.0,88,0.00,,---,0.00,VWS V14.00,2013-02-20 02:10:00,
2013-02-19 21:15:00,63.4,59.8,30.09,SW,221,0.0,0.0,88,0.00,,---,0.00,VWS V14.00,2013-02-20 02:15:00,
2013-02-19 21:20:00,63.2,59.9,30.09,SW,221,0.0,0.0,89,0.00,,---,0.00,VWS V14.00,2013-02-20 02:20:00,
2013-02-19 21:25:00,60.9,58.6,30.10,SW,221,0.0,0.0,92,0.00,,---,0.00,VWS V14.00,2013-02-20 02:25:00,
2013-02-19 21:26:00,62.9,59.6,30.09,SW,221,0.0,0.0,89,0.00,,---,0.00,VWS V14.00,2013-02-20 02:26:00,
2013-02-19 21:30:00,60.8,58.5,30.10,SW,221,0.0,0.0,92,0.00,,---,0.00,VWS V14.00,2013-02-20 02:30:00,
2013-02-19 21:31:00,62.7,59.4,30.09,SW,221,0.0,0.0,89,0.00,,---,0.00,VWS V14.00,2013-02-20 02:31:00,
2013-02-19 21:35:00,62.5,59.5,30.10,SW,221,0.0,0.0,90,0.00,,---,0.00,VWS V14.00,2013-02-20 02:35:00,
2013-02-19 21:40:00,62.3,59.3,30.10,SW,221,0.0,0.0,90,0.00,,---,0.00,VWS V14.00,2013-02-20 02:40:00,
2013-02-19 21:45:00,60.2,57.9,30.10,SW,221,0.0,0.0,92,0.00,,---,0.00,VWS V14.00,2013-02-20 02:45:00,
2013-02-19 21:46:00,62.2,59.5,30.10,SW,221,0.0,0.0,91,0.00,,---,0.00,VWS V14.00,2013-02-20 02:46:00,
2013-02-19 21:50:00,60.1,58.1,30.10,SW,221,0.0,0.0,93,0.00,,---,0.00,VWS V14.00,2013-02-20 02:50:00,
2013-02-19 21:51:00,62.0,59.3,30.10,SW,221,0.0,0.0,91,0.00,,---,0.00,VWS V14.00,2013-02-20 02:51:00,
2013-02-19 21:55:00,60.0,58.0,30.10,SW,221,0.0,0.0,93,0.00,,---,0.00,VWS V14.00,2013-02-20 02:55:00,
2013-02-19 21:56:00,61.8,59.2,30.10,SW,221,0.0,0.0,91,0.00,,---,0.00,VWS V14.00,2013-02-20 02:56:00,
2013-02-19 22:00:00,59.9,57.9,30.09,SW,221,0.0,0.0,93,0.00,,---,0.00,VWS V14.00,2013-02-20 03:00:00,
2013-02-19 22:01:00,61.6,59.0,30.10,SW,221,0.0,0.0,91,0.00,,---,0.00,VWS V14.00,2013-02-20 03:01:00,
2013-02-19 22:05:00,59.8,57.8,30.09,SW,221,0.0,0.0,93,0.00,,---,0.00,VWS V14.00,2013-02-20 03:05:00,
2013-02-19 22:06:00,61.5,58.8,30.10,SW,221,0.0,0.0,91,0.00,,---,0.00,VWS V14.00,2013-02-20 03:06:00,
2013-02-19 22:10:00,59.6,57.6,30.10,SW,221,0.0,0.0,93,0.00,,---,0.00,VWS V14.00,2013-02-20 03:10:00,
2013-02-19 22:11:00,61.3,58.7,30.10,SW,221,0.0,0.0,91,0.00,,---,0.00,VWS V14.00,2013-02-20 03:11:00,
2013-02-19 22:15:00,59.5,57.5,30.10,SW,221,0.0,0.0,93,0.00,,---,0.00,VWS V14.00,2013-02-20 03:15:00,
2013-02-19 22:16:00,61.2,58.9,30.10,SW,221,0.0,0.0,92,0.00,,---,0.00,VWS V14.00,2013-02-20 03:16:00,
2013-02-19 22:20:00,59.4,57.7,30.10,SW,221,0.0,0.0,94,0.00,,---,0.00,VWS V14.00,2013-02-20 03:20:00,
2013-02-19 22:21:00,61.1,58.8,30.10,SW,221,0.0,0.0,92,0.00,,---,0.00,VWS V14.00,2013-02-20 03:21:00,
2013-02-19 22:25:00,59.3,57.6,30.10,SW,221,0.0,0.0,94,0.00,,---,0.00,VWS V14.00,2013-02-20 03:25:00,
2013-02-19 22:26:00,60.9,58.6,30.10,SW,221,0.0,0.0,92,0.00,,---,0.00,VWS V14.00,2013-02-20 03:26:00,
2013-02-19 22:30:00,59.3,57.6,30.09,SW,221,0.0,0.0,94,0.00,,---,0.00,VWS V14.00,2013-02-20 03:30:00,
2013-02-19 22:31:00,60.8,58.5,30.10,SW,221,0.0,0.0,92,0.00,,---,0.00,VWS V14.00,2013-02-20 03:31:00,
2013-02-19 22:35:00,59.3,57.9,30.09,SW,221,0.0,0.0,95,0.00,,---,0.00,VWS V14.00,2013-02-20 03:35:00,
2013-02-19 22:36:00,60.6,58.3,30.10,SW,221,0.0,0.0,92,0.00,,---,0.00,VWS V14.00,2013-02-20 03:36:00,
2013-02-19 22:40:00,59.4,58.0,30.09,SW,221,0.0,0.0,95,0.00,,---,0.00,VWS V14.00,2013-02-20 03:40:00,
2013-02-19 22:41:00,60.4,58.1,30.10,SW,221,0.0,0.0,92,0.00,,---,0.00,VWS V14.00,2013-02-20 03:41:00,
2013-02-19 22:45:00,59.3,57.9,30.08,SW,221,0.0,0.0,95,0.00,,---,0.00,VWS V14.00,2013-02-20 03:45:00,
2013-02-19 22:46:00,60.2,57.9,30.10,SW,221,0.0,0.0,92,0.00,,---,0.00,VWS V14.00,2013-02-20 03:46:00,
2013-02-19 22:50:00,59.2,57.5,30.09,SW,221,0.0,0.0,94,0.00,,---,0.00,VWS V14.00,2013-02-20 03:50:00,
2013-02-19 22:51:00,60.1,58.1,30.10,SW,221,0.0,0.0,93,0.00,,---,0.00,VWS V14.00,2013-02-20 03:51:00,
2013-02-19 22:55:00,59.1,57.4,30.08,SW,221,0.0,0.0,94,0.00,,---,0.00,VWS V14.00,2013-02-20 03:55:00,
2013-02-19 22:56:00,60.0,58.0,30.10,SW,221,0.0,0.0,93,0.00,,---,0.00,VWS V14.00,2013-02-20 03:56:00,
2013-02-19 23:00:00,58.9,57.2,30.08,SW,221,0.0,0.0,94,0.00,,---,0.00,VWS V14.00,2013-02-20 04:00:00,
2013-02-19 23:01:00,59.9,57.9,30.09,SW,221,0.0,0.0,93,0.00,,---,0.00,VWS V14.00,2013-02-20 04:01:00,
2013-02-19 23:05:00,58.8,57.4,30.08,SW,221,0.0,0.0,95,0.00,,---,0.00,VWS V14.00,2013-02-20 04:05:00,
2013-02-19 23:06:00,59.8,57.8,30.09,SW,221,0.0,0.0,93,0.00,,---,0.00,VWS V14.00,2013-02-20 04:06:00,
2013-02-19 23:10:00,58.7,57.0,30.08,SW,221,0.0,0.0,94,0.00,,---,0.00,VWS V14.00,2013-02-20 04:10:00,
2013-02-19 23:11:00,59.6,57.6,30.10,SW,221,0.0,0.0,93,0.00,,---,0.00,VWS V14.00,2013-02-20 04:11:00,
2013-02-19 23:15:00,58.6,56.9,30.08,SW,221,0.0,0.0,94,0.00,,---,0.00,VWS V14.00,2013-02-20 04:15:00,
2013-02-19 23:16:00,59.5,57.5,30.09,SW,221,0.0,0.0,93,0.00,,---,0.00,VWS V14.00,2013-02-20 04:16:00,
2013-02-19 23:20:00,58.4,56.7,30.08,SW,221,0.0,0.0,94,0.00,,---,0.00,VWS V14.00,2013-02-20 04:20:00,
2013-02-19 23:21:00,59.4,57.7,30.10,SW,221,0.0,0.0,94,0.00,,---,0.00,VWS V14.00,2013-02-20 04:21:00,
2013-02-19 23:25:00,58.3,56.9,30.08,SW,221,0.0,0.0,95,0.00,,---,0.00,VWS V14.00,2013-02-20 04:25:00,
2013-02-19 23:26:00,59.3,57.6,30.10,SW,221,0.0,0.0,94,0.00,,---,0.00,VWS V14.00,2013-02-20 04:26:00,
2013-02-19 23:30:00,58.2,56.8,30.08,SW,221,0.0,0.0,95,0.00,,---,0.00,VWS V14.00,2013-02-20 04:30:00,
2013-02-19 23:31:00,59.3,57.6,30.09,SW,221,0.0,0.0,94,0.00,,---,0.00,VWS V14.00,2013-02-20 04:31:00,
2013-02-19 23:35:00,58.1,56.7,30.08,SW,221,0.0,0.0,95,0.00,,---,0.00,VWS V14.00,2013-02-20 04:35:00,
2013-02-19 23:36:00,59.3,57.9,30.09,SW,221,0.0,0.0,95,0.00,,---,0.00,VWS V14.00,2013-02-20 04:36:00,
2013-02-19 23:40:00,57.9,56.2,30.08,SW,221,0.0,0.0,94,0.00,,---,0.00,VWS V14.00,2013-02-20 04:40:00,
2013-02-19 23:41:00,59.4,58.0,30.09,SW,221,0.0,0.0,95,0.00,,---,0.00,VWS V14.00,2013-02-20 04:41:00,
2013-02-19 23:45:00,57.8,56.4,30.07,SW,221,0.0,0.0,95,0.00,,---,0.00,VWS V14.00,2013-02-20 04:45:00,
2013-02-19 23:46:00,59.3,57.9,30.08,SW,221,0.0,0.0,95,0.00,,---,0.00,VWS V14.00,2013-02-20 04:46:00,
2013-02-19 23:50:00,57.8,56.4,30.08,SW,221,0.0,0.0,95,0.00,,---,0.00,VWS V14.00,2013-02-20 04:50:00,
2013-02-19 23:51:00,59.2,57.5,30.08,SW,221,0.0,0.0,94,0.00,,---,0.00,VWS V14.00,2013-02-20 04:51:00,
2013-02-19 23:55:00,57.7,56.3,30.07,SW,221,0.0,0.0,95,0.00,,---,0.00,VWS V14.00,2013-02-20 04:55:00,
2013-02-19 23:56:00,59.1,57.4,30.08,SW,221,0.0,0.0,94,0.00,,---,0.00,VWS V14.00,2013-02-20 04:56:00,